Time;durP1;ratioP1;P1;durP2;ratioP2;P2;SDS_P1;SDS_P2;PMS_P1;PMS_P2;Temp;Humidity;BMP_temperature;BMP_pressure;BME280_temperature;BME280_humidity;BME280_pressure;Samples;Min_cycle;Max_cycle;Signal;HPM_P1;HPM_P2
2022/03/30 00:00:13;;;;;;;;;38.00;31.75;;;;;15.48;100.00;100189.88;5005262;28;45894;-76
2022/03/30 00:02:39;;;;;;;;;32.00;29.75;;;;;15.48;100.00;100176.81;4994965;27;45358;-76
2022/03/30 00:05:05;;;;;;;;;35.00;31.50;;;;;15.49;100.00;100177.69;4993806;28;45851;-76
2022/03/30 00:07:32;;;;;;;;;36.00;32.50;;;;;15.48;100.00;100174.22;4994407;28;45936;-76
2022/03/30 00:10:04;;;;;;;;;39.25;30.50;;;;;15.50;100.00;100171.63;4995088;28;45275;-75
2022/03/30 00:12:31;;;;;;;;;39.50;32.50;;;;;15.51;100.00;100175.09;4995665;28;45339;-76
2022/03/30 00:14:57;;;;;;;;;41.25;32.75;;;;;15.41;100.00;100159.31;4976225;28;46458;-74
2022/03/30 00:17:23;;;;;;;;;36.50;31.25;;;;;15.44;100.00;100172.41;4994500;28;45242;-74
2022/03/30 00:19:49;;;;;;;;;41.25;33.75;;;;;15.45;100.00;100174.16;4994428;28;45292;-74
2022/03/30 00:22:15;;;;;;;;;37.75;33.00;;;;;15.46;100.00;100167.19;4976885;28;45612;-75
2022/03/30 00:24:44;;;;;;;;;35.50;32.00;;;;;15.51;100.00;100170.78;4994528;28;46088;-75
2022/03/30 00:27:13;;;;;;;;;39.25;32.75;;;;;15.41;100.00;100145.41;4993626;27;46021;-75
2022/03/30 00:29:39;;;;;;;;;40.50;36.00;;;;;15.50;100.00;100160.28;5013502;28;45421;-75
2022/03/30 00:32:05;;;;;;;;;54.00;43.75;;;;;15.46;100.00;100149.84;5005515;27;45594;-75
2022/03/30 00:34:31;;;;;;;;;58.00;46.50;;;;;15.53;100.00;100166.44;4993881;27;45998;-75
2022/03/30 00:36:57;;;;;;;;;56.00;43.75;;;;;15.45;100.00;100149.78;4993876;27;45425;-75
2022/03/30 00:39:23;;;;;;;;;58.25;44.50;;;;;15.54;100.00;100156.88;4994592;27;45434;-75
2022/03/30 00:41:49;;;;;;;;;52.50;43.50;;;;;15.52;100.00;100150.75;5003281;28;45459;-76
2022/03/30 00:44:15;;;;;;;;;52.75;43.00;;;;;15.50;100.00;100149.84;5001448;28;45959;-76
2022/03/30 00:46:44;;;;;;;;;53.00;42.00;;;;;15.50;100.00;100142.03;5005013;28;45443;-76
2022/03/30 00:49:10;;;;;;;;;58.50;43.25;;;;;15.53;100.00;100148.19;5004561;28;45297;-76
2022/03/30 00:51:36;;;;;;;;;56.25;43.00;;;;;15.47;100.00;100141.16;5006340;27;45556;-76
2022/03/30 00:54:03;;;;;;;;;53.00;41.75;;;;;15.48;100.00;100142.91;4996971;27;45505;-76
2022/03/30 00:56:33;;;;;;;;;49.50;40.50;;;;;15.48;100.00;100137.69;5012936;27;45951;-76
2022/03/30 00:59:01;;;;;;;;;53.00;41.00;;;;;15.45;100.00;100135.03;4998196;27;45338;-75
2022/03/30 01:01:28;;;;;;;;;52.50;41.25;;;;;15.41;100.00;100125.41;5012064;27;45465;-76
2022/03/30 01:03:54;;;;;;;;;55.00;42.75;;;;;15.42;100.00;100126.28;4994699;28;45474;-77
2022/03/30 01:06:20;;;;;;;;;52.75;43.75;;;;;15.46;100.00;100131.56;5001314;27;45409;-76
2022/03/30 01:08:46;;;;;;;;;54.50;43.50;;;;;15.42;100.00;100128.91;5012554;27;45556;-77
2022/03/30 01:11:12;;;;;;;;;55.25;44.00;;;;;15.39;100.00;100114.06;5013528;27;45596;-75
2022/03/30 01:13:39;;;;;;;;;51.75;41.50;;;;;15.35;100.00;100107.06;5013167;28;45909;-75
2022/03/30 01:16:06;;;;;;;;;51.50;41.75;;;;;15.40;100.00;100105.38;5012794;28;45295;-77
2022/03/30 01:18:40;;;;;;;;;48.00;40.25;;;;;15.38;100.00;100096.69;5013358;28;45416;-77
2022/03/30 01:21:10;;;;;;;;;50.00;40.75;;;;;15.42;100.00;100105.44;5013282;28;45407;-76
2022/03/30 01:23:38;;;;;;;;;53.00;40.75;;;;;15.34;100.00;100094.88;5013214;27;46466;-76
2022/03/30 01:26:05;;;;;;;;;55.00;42.50;;;;;15.40;100.00;100094.09;4995088;27;45411;-76
2022/03/30 01:28:32;;;;;;;;;54.50;43.25;;;;;15.33;100.00;100085.31;5011180;28;45243;-76
2022/03/30 01:33:44;;;;;;;;;54.50;42.00;;;;;15.39;100.00;100092.34;4993116;28;45451;-75
2022/03/30 01:36:10;;;;;;;;;51.00;40.50;;;;;15.37;100.00;100094.03;4996602;27;45383;-75
2022/03/30 01:38:36;;;;;;;;;49.75;41.25;;;;;15.35;100.00;100082.69;4993503;28;45361;-75
2022/03/30 01:41:02;;;;;;;;;51.25;41.00;;;;;15.39;100.00;100082.75;4996531;28;45407;-75
2022/03/30 01:43:30;;;;;;;;;55.00;40.00;;;;;15.34;100.00;100081.84;4992895;28;45239;-74
2022/03/30 01:45:57;;;;;;;;;54.00;42.00;;;;;15.37;100.00;100081.88;5004443;28;45953;-75
2022/03/30 01:48:22;;;;;;;;;54.50;43.75;;;;;15.27;100.00;100067.84;5000453;28;45427;-74
2022/03/30 01:50:48;;;;;;;;;54.50;41.75;;;;;15.31;100.00;100076.56;4993452;28;45642;-75
2022/03/30 01:53:14;;;;;;;;;52.75;43.50;;;;;15.27;100.00;100077.41;4993631;28;45578;-75
2022/03/30 01:55:40;;;;;;;;;55.25;44.50;;;;;15.25;100.00;100074.75;4992894;27;45913;-75
2022/03/30 01:58:06;;;;;;;;;56.75;44.00;;;;;15.24;100.00;100077.34;4997511;28;45334;-75
2022/03/30 02:00:32;;;;;;;;;59.00;45.00;;;;;15.23;100.00;100067.78;5000811;27;45457;-75
2022/03/30 02:02:58;;;;;;;;;54.75;44.00;;;;;15.21;100.00;100056.44;4994407;28;46064;-75
2022/03/30 02:05:24;;;;;;;;;54.00;44.25;;;;;15.19;100.00;100058.16;4997000;28;45354;-75
2022/03/30 02:07:50;;;;;;;;;57.50;44.25;;;;;15.22;100.00;100060.81;5012931;28;45378;-74
2022/03/30 02:10:15;;;;;;;;;53.00;43.00;;;;;15.18;100.00;100044.25;5004180;27;45377;-74
2022/03/30 02:12:41;;;;;;;;;55.25;44.25;;;;;15.18;100.00;100049.47;4995191;27;45609;-73
2022/03/30 02:15:10;;;;;;;;;51.00;41.25;;;;;15.11;100.00;100048.50;5001898;28;45548;-73
2022/03/30 02:17:37;;;;;;;;;55.50;44.00;;;;;15.11;100.00;100050.25;5015645;27;45419;-77
2022/03/30 02:20:03;;;;;;;;;50.50;41.75;;;;;15.09;100.00;100050.19;4998429;28;45439;-73
2022/03/30 02:22:29;;;;;;;;;60.00;46.25;;;;;15.01;100.00;100033.59;4983124;28;45537;-73
2022/03/30 02:24:55;;;;;;;;;55.25;44.75;;;;;15.04;100.00;100046.66;5014962;28;45342;-74
2022/03/30 02:27:20;;;;;;;;;52.25;42.50;;;;;15.07;100.00;100041.47;5003026;27;45489;-75
2022/03/30 02:29:48;;;;;;;;;54.25;43.75;;;;;15.03;100.00;100044.91;5015665;27;45615;-75
2022/03/30 02:32:14;;;;;;;;;51.75;43.00;;;;;15.02;100.00;100035.34;4981265;28;46353;-74
2022/03/30 02:34:40;;;;;;;;;55.00;44.50;;;;;14.97;100.00;100034.38;5005326;27;45468;-74
2022/03/30 02:37:06;;;;;;;;;58.25;44.00;;;;;15.01;100.00;100036.19;4985793;28;45370;-75
2022/03/30 02:39:32;;;;;;;;;55.50;44.50;;;;;14.99;100.00;100040.50;4976859;28;45539;-75
2022/03/30 02:41:58;;;;;;;;;52.50;42.25;;;;;14.99;100.00;100037.91;4994999;28;45335;-76
2022/03/30 02:44:23;;;;;;;;;55.25;43.50;;;;;14.98;100.00;100031.81;4995597;28;45349;-75
2022/03/30 02:46:52;;;;;;;;;56.25;44.25;;;;;15.03;100.00;100026.66;5007001;28;45488;-77
2022/03/30 02:49:18;;;;;;;;;55.75;42.25;;;;;14.98;100.00;100016.19;4995289;28;45544;-75
2022/03/30 02:51:43;;;;;;;;;55.00;44.25;;;;;15.02;100.00;100028.38;5012205;27;45540;-75
2022/03/30 02:54:09;;;;;;;;;57.00;45.25;;;;;14.99;100.00;100032.69;5014700;27;45355;-73
2022/03/30 02:56:34;;;;;;;;;56.25;43.75;;;;;14.97;100.00;100026.56;5015306;27;45402;-74
2022/03/30 02:59:00;;;;;;;;;56.25;44.50;;;;;14.95;100.00;100023.94;5014796;27;45591;-73
2022/03/30 03:01:25;;;;;;;;;54.75;42.75;;;;;14.93;100.00;100014.38;5014943;27;45599;-74
2022/03/30 03:03:51;;;;;;;;;56.50;44.00;;;;;14.93;100.00;100015.22;5013779;28;45537;-73
2022/03/30 03:06:17;;;;;;;;;45.25;35.25;;;;;14.95;100.00;100020.47;4996319;27;45215;-73
2022/03/30 03:08:42;;;;;;;;;54.75;43.75;;;;;14.83;100.00;100002.91;5006621;28;45574;-74
2022/03/30 03:11:08;;;;;;;;;57.75;44.00;;;;;14.94;100.00;100024.81;4995342;28;45397;-75
2022/03/30 03:13:34;;;;;;;;;55.25;43.75;;;;;14.88;100.00;100008.19;4996028;28;45357;-74
2022/03/30 03:15:59;;;;;;;;;56.25;45.00;;;;;14.83;100.00;100002.91;5014033;28;45304;-74
2022/03/30 03:18:25;;;;;;;;;53.75;42.00;;;;;14.83;100.00;100013.34;5010864;28;45621;-74
2022/03/30 03:20:51;;;;;;;;;53.25;42.75;;;;;14.88;100.00;100008.19;4996554;28;45428;-74
2022/03/30 03:23:17;;;;;;;;;53.50;43.75;;;;;14.88;100.00;100019.50;5003236;28;45512;-75
2022/03/30 03:25:44;;;;;;;;;52.00;40.25;;;;;14.82;100.00;100003.78;5008032;28;45384;-74
2022/03/30 03:28:11;;;;;;;;;55.00;42.50;;;;;14.84;100.00;100009.88;4997930;27;45537;-74
2022/03/30 03:30:38;;;;;;;;;54.25;43.00;;;;;14.82;100.00;100006.38;5001409;28;45240;-74
2022/03/30 03:33:08;;;;;;;;;54.00;43.50;;;;;14.83;100.00;100013.34;4995804;27;45456;-74
2022/03/30 03:35:34;;;;;;;;;52.75;43.00;;;;;14.81;100.00;100008.13;4988455;28;45401;-75
2022/03/30 03:38:00;;;;;;;;;56.75;44.00;;;;;14.76;100.00;100001.94;5000217;27;45636;-75
2022/03/30 03:40:27;;;;;;;;;53.50;40.75;;;;;14.79;100.00;100006.34;4994608;28;46180;-76
2022/03/30 03:42:53;;;;;;;;;57.00;46.00;;;;;14.77;100.00;100006.31;4995590;27;45374;-74
2022/03/30 03:45:19;;;;;;;;;59.00;45.75;;;;;14.74;100.00;99992.38;5011300;28;45300;-76
2022/03/30 03:47:47;;;;;;;;;53.75;42.50;;;;;14.74;100.00;99995.84;4995951;28;45348;-74
2022/03/30 03:50:13;;;;;;;;;57.25;44.00;;;;;14.69;100.00;99987.09;4995151;28;45940;-75
2022/03/30 03:52:39;;;;;;;;;57.75;44.50;;;;;14.73;100.00;99993.22;4994258;28;45326;-74
2022/03/30 03:55:05;;;;;;;;;53.75;44.50;;;;;14.66;100.00;99995.72;4994393;28;45319;-75
2022/03/30 03:57:33;;;;;;;;;57.25;45.75;;;;;14.62;100.00;99987.84;4982676;28;45507;-75
2022/03/30 03:59:59;;;;;;;;;54.25;42.50;;;;;14.63;100.00;99993.06;5001305;28;46080;-77
2022/03/30 04:02:25;;;;;;;;;55.00;43.50;;;;;14.61;100.00;99992.16;4993323;28;45742;-76
2022/03/30 04:04:51;;;;;;;;;55.25;43.75;;;;;14.55;100.00;99979.91;4977069;28;45680;-76
2022/03/30 04:07:16;;;;;;;;;55.75;45.75;;;;;14.54;100.00;99972.09;5000527;28;45555;-76
2022/03/30 04:09:42;;;;;;;;;60.25;45.50;;;;;14.64;100.00;99986.09;5003574;28;46163;-76
2022/03/30 04:12:08;;;;;;;;;56.00;44.75;;;;;14.65;100.00;99990.47;4996046;28;45532;-76
2022/03/30 04:14:34;;;;;;;;;61.50;47.25;;;;;14.64;100.00;99987.00;5014211;28;45345;-75
2022/03/30 04:17:00;;;;;;;;;56.50;44.25;;;;;14.68;100.00;99986.22;5012120;27;45547;-76
2022/03/30 04:19:25;;;;;;;;;57.00;45.25;;;;;14.70;100.00;99987.09;5013830;28;46150;-75
2022/03/30 04:21:51;;;;;;;;;57.50;44.75;;;;;14.72;100.00;99979.31;5007332;28;45436;-74
2022/03/30 04:24:17;;;;;;;;;55.75;44.25;;;;;14.70;100.00;99978.44;4994043;28;45370;-75
2022/03/30 04:26:43;;;;;;;;;58.25;45.50;;;;;14.72;100.00;99978.44;4995109;27;45537;-77
2022/03/30 04:29:09;;;;;;;;;60.00;45.00;;;;;14.74;100.00;99971.53;5004786;28;45364;-77
2022/03/30 04:31:35;;;;;;;;;56.75;46.00;;;;;14.65;100.00;99956.59;5001119;27;45315;-76
2022/03/30 04:34:00;;;;;;;;;63.00;47.25;;;;;14.71;100.00;99972.38;5006184;28;45316;-77
2022/03/30 04:36:26;;;;;;;;;58.50;46.50;;;;;14.66;100.00;99961.84;5010021;28;45520;-76
2022/03/30 04:38:52;;;;;;;;;55.50;45.75;;;;;14.72;100.00;99968.91;5011923;28;45392;-76
2022/03/30 04:41:18;;;;;;;;;60.50;45.75;;;;;14.74;100.00;99976.72;5009724;27;45466;-76
2022/03/30 04:43:44;;;;;;;;;56.25;44.25;;;;;14.74;100.00;99967.19;4994103;28;45283;-76
2022/03/30 04:46:11;;;;;;;;;55.50;44.50;;;;;14.68;100.00;99954.97;4993925;28;45265;-75
2022/03/30 04:48:37;;;;;;;;;59.75;47.00;;;;;14.72;100.00;99961.09;4993420;28;46360;-76
2022/03/30 04:51:06;;;;;;;;;52.75;44.00;;;;;14.73;100.00;99957.63;4999731;28;45895;-75
2022/03/30 04:53:32;;;;;;;;;62.75;48.25;;;;;14.76;100.00;99957.66;4998482;27;45592;-76
2022/03/30 04:55:57;;;;;;;;;60.50;47.00;;;;;14.67;100.00;99942.78;4993589;28;45476;-73
2022/03/30 04:58:23;;;;;;;;;60.75;48.00;;;;;14.76;100.00;99955.03;4991431;28;45842;-75
2022/03/30 05:00:49;;;;;;;;;58.00;47.00;;;;;14.76;100.00;99954.19;4997139;28;45758;-77
2022/03/30 05:03:15;;;;;;;;;58.75;46.25;;;;;14.81;100.00;99942.06;4992901;28;45479;-75
2022/03/30 05:05:40;;;;;;;;;65.50;50.75;;;;;14.87;100.00;99947.38;4979208;28;45407;-74
2022/03/30 05:08:06;;;;;;;;;60.25;48.25;;;;;14.85;100.00;99955.16;4981923;28;45751;-75
2022/03/30 05:10:32;;;;;;;;;60.50;46.25;;;;;14.82;100.00;99938.63;5011876;28;45581;-75
2022/03/30 05:12:59;;;;;;;;;58.00;44.25;;;;;14.85;100.00;99941.28;4994976;28;45518;-75
2022/03/30 05:15:28;;;;;;;;;63.00;47.50;;;;;14.93;100.00;99944.00;4993843;28;45353;-74
2022/03/30 05:17:54;;;;;;;;;62.00;47.25;;;;;14.95;100.00;99950.97;5002167;28;45878;-74
2022/03/30 05:20:21;;;;;;;;;60.25;46.50;;;;;14.97;100.00;99946.66;5011310;28;45813;-75
2022/03/30 05:22:46;;;;;;;;;62.00;48.75;;;;;14.96;100.00;99947.50;5013575;28;45326;-75
2022/03/30 05:25:13;;;;;;;;;60.25;45.50;;;;;14.95;100.00;99948.34;5014606;28;45239;-75
2022/03/30 05:27:39;;;;;;;;;63.25;49.00;;;;;14.93;100.00;99941.38;5013030;28;46115;-76
2022/03/30 05:30:07;;;;;;;;;63.00;48.50;;;;;14.95;100.00;99939.69;5012938;28;45397;-77
2022/03/30 05:32:32;;;;;;;;;65.25;49.75;;;;;14.89;100.00;99936.97;5007033;28;45568;-76
2022/03/30 05:34:58;;;;;;;;;58.50;47.00;;;;;14.92;100.00;99947.44;5009420;27;45538;-76
2022/03/30 05:37:27;;;;;;;;;60.50;46.75;;;;;14.86;100.00;99943.88;5004172;28;45460;-78
2022/03/30 05:39:53;;;;;;;;;62.75;49.00;;;;;14.78;100.00;99937.72;4985600;28;45308;-76
2022/03/30 05:42:20;;;;;;;;;58.00;46.75;;;;;14.85;100.00;99955.16;5010885;28;45446;-76
2022/03/30 05:44:46;;;;;;;;;58.50;47.25;;;;;14.88;100.00;99953.47;4999437;27;45568;-75
2022/03/30 05:47:14;;;;;;;;;63.50;48.75;;;;;14.92;100.00;99963.09;4991914;28;45977;-76
2022/03/30 05:49:41;;;;;;;;;65.00;51.00;;;;;14.85;100.00;99946.50;4993393;28;45572;-76
2022/03/30 05:52:07;;;;;;;;;61.00;47.75;;;;;14.84;100.00;99952.56;4993722;28;45680;-76
2022/03/30 05:54:33;;;;;;;;;52.25;42.00;;;;;14.88;100.00;99959.56;4993452;28;45599;-76
2022/03/30 05:57:02;;;;;;;;;62.25;49.75;;;;;14.87;100.00;99960.41;4992028;27;45469;-76
2022/03/30 05:59:38;;;;;;;;;62.75;49.00;;;;;14.85;100.00;99955.16;4992034;28;45481;-74
2022/03/30 06:02:08;;;;;;;;;66.50;51.75;;;;;14.89;100.00;99965.66;4975676;28;45470;-75
2022/03/30 06:04:34;;;;;;;;;63.75;49.75;;;;;14.82;100.00;99956.88;4989291;28;45625;-76
2022/03/30 06:07:01;;;;;;;;;66.00;50.75;;;;;14.86;100.00;99966.47;4976802;28;46872;-75
2022/03/30 06:09:33;;;;;;;;;61.75;48.75;;;;;14.80;100.00;99959.47;5012592;28;45897;-75
2022/03/30 06:12:00;;;;;;;;;67.25;52.00;;;;;14.78;100.00;99958.56;5010267;28;45170;-76
2022/03/30 06:14:26;;;;;;;;;68.00;52.00;;;;;14.70;100.00;99958.44;4998755;27;45598;-75
2022/03/30 06:16:52;;;;;;;;;66.75;52.75;;;;;14.73;100.00;99978.47;4992750;28;46100;-73
2022/03/30 06:19:17;;;;;;;;;68.00;51.50;;;;;14.68;100.00;99978.41;4992226;27;45862;-75
2022/03/30 06:21:43;;;;;;;;;66.50;51.25;;;;;14.51;100.00;99959.91;4992088;28;45436;-74
2022/03/30 06:24:12;;;;;;;;;64.50;50.00;;;;;14.59;100.00;99970.41;5001283;28;45285;-77
2022/03/30 06:26:40;;;;;;;;;66.00;50.75;;;;;14.53;100.00;99965.97;4997418;27;45482;-82
2022/03/30 06:29:06;;;;;;;;;61.25;47.50;;;;;14.51;100.00;99972.91;4992455;28;45924;-77
2022/03/30 06:31:32;;;;;;;;;63.00;49.50;;;;;14.50;100.00;99976.38;5061441;27;45465;-78
2022/03/30 06:33:58;;;;;;;;;62.25;50.25;;;;;14.46;100.00;99973.69;5000111;27;45557;-80
2022/03/30 06:36:24;;;;;;;;;64.25;50.25;;;;;14.40;100.00;99969.28;5097866;27;46249;-75
2022/03/30 06:38:50;;;;;;;;;68.00;50.75;;;;;14.40;100.00;99972.75;5075872;27;45361;-72
2022/03/30 06:41:18;;;;;;;;;68.00;53.00;;;;;14.46;100.00;99973.69;5036909;27;45485;-76
2022/03/30 06:43:46;;;;;;;;;66.50;51.00;;;;;14.48;100.00;99972.88;4993255;27;45500;-73
2022/03/30 06:46:16;;;;;;;;;65.75;51.50;;;;;14.51;100.00;99982.44;4997384;27;45684;-75
2022/03/30 06:48:43;;;;;;;;;63.75;50.25;;;;;14.42;100.00;99970.16;4995172;27;45447;-77
2022/03/30 06:51:09;;;;;;;;;64.50;50.00;;;;;14.52;100.00;99987.66;5015531;27;45240;-77
2022/03/30 06:53:35;;;;;;;;;62.50;48.50;;;;;14.57;100.00;99985.16;5025359;27;45840;-77
2022/03/30 06:56:00;;;;;;;;;61.50;47.00;;;;;14.58;100.00;99973.84;5002091;28;47855;-74
2022/03/30 06:58:26;;;;;;;;;62.00;46.75;;;;;14.65;100.00;99985.25;5059190;27;45383;-74
2022/03/30 07:00:52;;;;;;;;;62.25;49.00;;;;;14.63;100.00;99976.56;5029699;27;45500;-78
2022/03/30 07:03:18;;;;;;;;;61.75;47.75;;;;;14.65;100.00;99988.75;4981749;27;45510;-74
2022/03/30 07:05:44;;;;;;;;;67.25;52.00;;;;;14.65;100.00;99983.53;4995274;28;45921;-77
2022/03/30 07:10:54;;;;;;;;;63.75;51.00;;;;;14.64;100.00;99991.31;5014206;27;45457;-73
2022/03/30 07:13:22;;;;;;;;;61.50;49.50;;;;;14.61;100.00;99988.69;5003782;27;45504;-77
2022/03/30 07:15:47;;;;;;;;;64.75;51.25;;;;;14.56;100.00;99980.81;5003332;27;46153;-74
2022/03/30 07:18:13;;;;;;;;;64.00;51.00;;;;;14.58;100.00;99986.88;4995244;27;45193;-73
2022/03/30 07:20:39;;;;;;;;;61.25;48.50;;;;;14.55;100.00;99987.72;4997519;27;45361;-75
2022/03/30 07:23:05;;;;;;;;;61.75;47.25;;;;;14.50;100.00;99981.59;5013114;27;45549;-76
2022/03/30 07:25:31;;;;;;;;;64.75;50.00;;;;;14.47;100.00;99980.66;5038313;27;45414;-73
2022/03/30 07:27:59;;;;;;;;;63.25;48.75;;;;;14.47;100.00;99984.13;5032333;27;45465;-72
2022/03/30 07:30:26;;;;;;;;;69.50;52.00;;;;;14.41;100.00;99978.84;5005864;27;45469;-71
2022/03/30 07:32:53;;;;;;;;;58.25;43.50;;;;;14.44;100.00;99980.59;4995023;27;45320;-76
2022/03/30 07:35:22;;;;;;;;;64.00;48.00;;;;;14.45;100.00;99983.22;5006776;27;45516;-70
2022/03/30 07:37:48;;;;;;;;;67.50;51.25;;;;;14.43;100.00;99981.47;4990044;27;45919;-73
2022/03/30 07:40:17;;;;;;;;;63.75;48.50;;;;;14.45;100.00;99982.38;5008659;28;45292;-70
2022/03/30 07:42:45;;;;;;;;;65.50;50.75;;;;;14.45;100.00;99977.16;5007708;27;45514;-73
2022/03/30 07:45:10;;;;;;;;;63.50;50.00;;;;;14.45;100.00;99971.94;4991430;28;47650;-73
2022/03/30 07:47:36;;;;;;;;;64.25;48.50;;;;;14.22;100.00;99943.81;4994105;28;45527;-75
2022/03/30 07:50:04;;;;;;;;;65.00;50.00;;;;;14.45;100.00;99984.97;4993315;28;45507;-73
2022/03/30 07:52:30;;;;;;;;;64.50;51.50;;;;;14.47;100.00;99980.66;4994550;28;45449;-76
2022/03/30 07:54:55;;;;;;;;;63.50;48.00;;;;;14.42;100.00;99970.16;5004685;27;45674;-73
2022/03/30 07:57:26;;;;;;;;;66.00;50.00;;;;;14.51;100.00;99977.25;4998149;27;45552;-71
2022/03/30 07:59:57;;;;;;;;;71.25;53.25;;;;;14.51;100.00;99979.84;5008294;27;45343;-74
2022/03/30 08:02:23;;;;;;;;;58.75;48.25;;;;;14.52;100.00;99984.19;5008360;27;45514;-74
2022/03/30 08:04:50;;;;;;;;;67.25;52.75;;;;;14.50;100.00;99989.41;5003734;27;45991;-76
2022/03/30 08:07:16;;;;;;;;;63.50;50.00;;;;;14.49;100.00;99985.03;5004720;27;45348;-76
2022/03/30 08:09:45;;;;;;;;;67.50;51.75;;;;;14.47;100.00;99970.25;4990660;28;45478;-75
2022/03/30 08:12:11;;;;;;;;;65.75;50.75;;;;;14.43;100.00;99971.91;4992458;27;45387;-75
2022/03/30 08:14:38;;;;;;;;;64.25;50.25;;;;;14.45;100.00;99974.56;4994055;28;45827;-74
2022/03/30 08:17:05;;;;;;;;;65.75;51.00;;;;;14.48;100.00;99978.06;4993186;27;45323;-74
2022/03/30 08:19:30;;;;;;;;;63.00;48.50;;;;;14.41;100.00;99968.44;4993848;28;45415;-75
2022/03/30 08:24:41;;;;;;;;;60.75;48.75;;;;;14.48;100.00;99978.06;5072059;27;45741;-75
2022/03/30 08:27:07;;;;;;;;;63.75;50.00;;;;;14.28;100.00;99940.44;5035681;27;45229;-75
2022/03/30 08:29:32;;;;;;;;;66.50;51.25;;;;;14.39;100.00;99967.53;5096825;27;45450;-75
2022/03/30 08:31:58;;;;;;;;;64.75;51.00;;;;;14.40;100.00;99972.75;5097235;27;45516;-76
2022/03/30 08:34:25;;;;;;;;;64.00;50.50;;;;;14.44;100.00;99976.25;4983875;28;45361;-73
2022/03/30 08:36:50;;;;;;;;;66.25;51.00;;;;;14.34;100.00;99959.63;5003145;27;45679;-77
2022/03/30 08:39:18;;;;;;;;;65.50;50.75;;;;;14.45;100.00;99967.59;5002877;27;45793;-72
2022/03/30 08:41:46;;;;;;;;;64.25;51.25;;;;;14.51;100.00;99977.25;5026652;27;45662;-72
2022/03/30 08:44:14;;;;;;;;;65.50;51.50;;;;;14.51;100.00;99977.25;5046988;27;45320;-72
2022/03/30 08:46:48;;;;;;;;;67.50;52.25;;;;;14.47;100.00;99960.69;4995478;27;45337;-74
2022/03/30 08:49:15;;;;;;;;;66.25;52.75;;;;;14.45;100.00;99967.59;4993068;28;45327;-73
2022/03/30 08:51:50;;;;;;;;;63.25;50.00;;;;;14.53;100.00;99973.78;4993293;28;45569;-73
2022/03/30 08:54:18;;;;;;;;;66.75;51.00;;;;;14.55;100.00;99973.84;4992810;28;46002;-73
2022/03/30 08:56:48;;;;;;;;;68.25;52.75;;;;;14.49;100.00;99968.50;4992678;27;45970;-74
2022/03/30 08:59:19;;;;;;;;;69.50;53.00;;;;;14.54;100.00;99970.34;4992729;28;45411;-73
2022/03/30 09:01:46;;;;;;;;;67.25;49.50;;;;;14.52;100.00;99966.81;5007437;27;45604;-72
2022/03/30 09:04:14;;;;;;;;;66.00;52.00;;;;;14.58;100.00;99976.47;5008367;27;46231;-77
2022/03/30 09:06:46;;;;;;;;;66.00;51.25;;;;;14.61;100.00;99973.06;4985783;27;45453;-72
2022/03/30 09:09:14;;;;;;;;;70.75;53.50;;;;;14.67;100.00;99978.38;4990298;28;45354;-73
2022/03/30 09:12:01;;;;;;;;;65.75;52.25;;;;;14.66;100.00;99976.59;4999958;27;45526;-72
2022/03/30 09:14:31;;;;;;;;;73.75;55.75;;;;;14.66;100.00;99973.97;4990771;28;45474;-73
2022/03/30 09:17:02;;;;;;;;;68.25;52.50;;;;;14.67;100.00;99973.16;4992514;28;45669;-75
2022/03/30 09:19:29;;;;;;;;;70.00;52.50;;;;;14.72;100.00;99981.03;4974294;28;45500;-75
2022/03/30 09:21:58;;;;;;;;;67.00;53.25;;;;;14.75;100.00;99971.53;4993009;27;45824;-73
2022/03/30 09:24:27;;;;;;;;;63.50;50.75;;;;;14.80;100.00;99979.41;5038195;27;46120;-79
2022/03/30 09:26:54;;;;;;;;;68.75;52.00;;;;;14.75;100.00;99966.31;5007930;27;45567;-75
2022/03/30 09:29:21;;;;;;;;;72.00;55.00;;;;;14.81;100.00;99978.56;5014711;27;45264;-74
2022/03/30 09:31:49;;;;;;;;;64.75;50.00;;;;;14.80;100.00;99980.31;5038732;27;45311;-74
2022/03/30 09:34:15;;;;;;;;;67.75;52.50;;;;;14.70;100.00;99968.88;4992740;28;46407;-73
2022/03/30 09:36:42;;;;;;;;;64.25;50.50;;;;;14.66;100.00;99968.75;4997071;27;45528;-73
2022/03/30 09:39:27;;;;;;;;;67.75;51.50;;;;;14.72;100.00;99979.31;5009928;27;45468;-73
2022/03/30 09:41:55;;;;;;;;;52.00;40.75;;;;;14.74;100.00;99979.34;4982992;28;45383;-75
2022/03/30 09:44:21;;;;;;;;;72.25;56.25;;;;;14.76;100.00;99967.22;5001433;28;46771;-75
2022/03/30 09:47:03;;;;;;;;;73.75;55.50;;;;;14.82;100.00;99973.38;5003581;27;45353;-76
2022/03/30 09:49:31;;;;;;;;;66.75;51.00;;;;;14.90;100.00;99970.00;4995373;28;45236;-77
2022/03/30 09:51:57;;;;;;;;;69.75;53.00;;;;;14.92;100.00;99974.38;5012688;27;45607;-76
2022/03/30 09:54:43;;;;;;;;;68.00;50.25;;;;;14.77;100.00;99948.97;5003671;28;46485;-78
2022/03/30 09:57:15;;;;;;;;;67.50;51.75;;;;;14.90;100.00;99967.41;4991095;28;45907;-73
2022/03/30 10:00:02;;;;;;;;;62.50;46.75;;;;;14.96;100.00;99965.75;5001081;28;45935;-74
2022/03/30 10:02:30;;;;;;;;;70.50;53.75;;;;;15.03;100.00;99964.09;5012485;27;45415;-74
2022/03/30 10:04:58;;;;;;;;;66.50;52.00;;;;;15.01;100.00;99948.41;4994113;27;46161;-75
2022/03/30 10:07:23;;;;;;;;;65.50;50.50;;;;;15.11;100.00;99954.63;5010442;28;45270;-78
2022/03/30 10:09:50;;;;;;;;;66.00;51.50;;;;;15.17;100.00;99961.66;5012779;28;45254;-75
2022/03/30 10:12:17;;;;;;;;;63.75;48.25;;;;;15.13;100.00;99942.50;4994398;28;45516;-73
2022/03/30 10:14:46;;;;;;;;;67.25;50.50;;;;;15.24;100.00;99950.44;5014168;28;46239;-75
2022/03/30 10:17:13;;;;;;;;;64.75;49.75;;;;;15.30;100.00;99954.84;5012144;28;45355;-72
2022/03/30 10:19:42;;;;;;;;;62.75;47.25;;;;;15.32;100.00;99954.03;4996128;28;45397;-79
2022/03/30 10:22:50;;;;;;;;;67.25;50.50;;;;;15.36;100.00;99959.25;5010778;28;45401;-76
2022/03/30 10:25:50;;;;;;;;;65.75;49.00;;;;;15.35;100.00;99952.28;4996959;28;45504;-78
2022/03/30 10:28:22;;;;;;;;;67.00;51.25;;;;;15.35;100.00;99953.19;5003194;28;45746;-77
2022/03/30 10:30:56;;;;;;;;;64.75;49.00;;;;;15.38;100.00;99947.13;4995695;28;45228;-88
2022/03/30 10:33:33;;;;;;;;;67.00;51.00;;;;;15.33;100.00;99934.03;4996165;27;45468;-79
2022/03/30 10:36:19;;;;;;;;;66.25;51.00;;;;;15.26;100.00;99917.44;4994947;28;45270;-74
2022/03/30 10:39:15;;;;;;;;;60.00;47.50;;;;;15.48;100.00;99949.88;4995342;28;45985;-74
2022/03/30 10:42:12;;;;;;;;;68.00;53.00;;;;;15.49;100.00;99942.91;4995024;28;45419;-77
2022/03/30 10:44:46;;;;;;;;;66.75;50.75;;;;;15.53;100.00;99942.09;4994967;27;45632;-77
2022/03/30 10:47:29;;;;;;;;;62.75;46.75;;;;;15.52;100.00;99942.03;4995635;28;46094;-73
2022/03/30 10:49:57;;;;;;;;;62.25;48.00;;;;;15.54;100.00;99929.91;5004144;28;46889;-74
2022/03/30 10:52:29;;;;;;;;;63.75;50.00;;;;;15.60;100.00;99933.44;4997589;27;45447;-74
2022/03/30 10:55:12;;;;;;;;;65.75;49.50;;;;;15.66;100.00;99926.56;4995312;28;45797;-74
2022/03/30 10:58:01;;;;;;;;;61.25;49.00;;;;;15.72;100.00;99917.03;4996039;28;45908;-74
2022/03/30 11:00:36;;;;;;;;;63.00;48.75;;;;;15.80;100.00;99911.88;4995463;28;45207;-72
2022/03/30 11:03:20;;;;;;;;;61.75;45.75;;;;;15.85;100.00;99915.44;4994757;28;45287;-72
2022/03/30 11:06:02;;;;;;;;;62.75;49.25;;;;;15.89;100.00;99912.00;4995111;27;45447;-72
2022/03/30 11:08:34;;;;;;;;;62.50;48.00;;;;;15.96;100.00;99904.22;4994760;27;46167;-73
2022/03/30 11:11:04;;;;;;;;;64.50;48.00;;;;;15.96;100.00;99912.91;4994529;28;45866;-75
2022/03/30 11:13:30;;;;;;;;;61.25;47.75;;;;;15.97;100.00;99905.97;4995237;27;45422;-75
2022/03/30 11:16:04;;;;;;;;;65.25;49.25;;;;;15.96;100.00;99905.09;4994877;28;45366;-75
2022/03/30 11:18:31;;;;;;;;;60.75;47.50;;;;;15.99;100.00;99906.84;4994396;28;46194;-75